createdAt,value
2024-02-23T00:09:11.569Z,73698.91
2024-02-23T00:19:14.897Z,73702.94
2024-02-23T00:29:17.198Z,73690.81
2024-02-23T00:39:19.486Z,73692.81
2024-02-23T00:49:32.023Z,73680.69
2024-02-23T00:59:36.574Z,73670.56
2024-02-23T01:09:41.436Z,73666.53
2024-02-23T01:19:46.960Z,73670.56
2024-02-23T01:29:51.453Z,73686.75
2024-02-23T01:39:55.208Z,73686.75
2024-02-23T01:50:01.096Z,73694.84
2024-02-23T02:00:09.660Z,73682.72
2024-02-23T02:10:15.285Z,73672.59
2024-02-23T02:20:20.107Z,73654.41
2024-02-23T02:30:25.491Z,73646.31
2024-02-23T02:40:27.971Z,73634.16
2024-02-23T02:50:39.914Z,73622.03
2024-02-23T03:00:42.655Z,73613.94
2024-02-23T03:10:45.004Z,73609.91
2024-02-23T03:20:51.858Z,73615.97
2024-02-23T03:30:56.635Z,73654.41
2024-02-23T03:41:03.726Z,73706.97
2024-02-23T03:51:12.956Z,73761.59
2024-02-23T04:01:20.120Z,73804.09
2024-02-23T04:11:22.675Z,73826.34
2024-02-23T04:21:27.711Z,73844.53
2024-02-23T04:31:32.218Z,73862.75
2024-02-23T04:41:36.604Z,73864.75
2024-02-23T04:51:41.385Z,73872.84
2024-02-23T05:01:48.877Z,73880.94
2024-02-23T05:11:56.860Z,73885.00
2024-02-23T05:22:02.603Z,73887.03
2024-02-23T05:32:07.010Z,73905.22
2024-02-23T05:42:13.728Z,73909.28
2024-02-23T05:52:19.502Z,73929.50
2024-02-23T06:02:24.374Z,73935.56
2024-02-23T06:12:27.833Z,73945.69
2024-02-23T06:22:34.081Z,73957.81
2024-02-23T06:32:40.969Z,73953.78
2024-02-23T06:42:44.946Z,73905.22
2024-02-23T06:52:53.873Z,73941.63
2024-02-23T07:03:02.757Z,73953.78
2024-02-23T07:13:07.303Z,73955.78
2024-02-23T07:23:10.729Z,73965.91
2024-02-23T07:33:16.722Z,73969.97
2024-02-23T07:43:21.263Z,73978.03
2024-02-23T07:53:23.746Z,73965.91
2024-02-23T08:03:28.880Z,73980.06
2024-02-23T08:13:33.101Z,73974.00
2024-02-23T08:23:39.210Z,73957.81
2024-02-23T08:33:49.108Z,73963.88
2024-02-23T08:43:53.694Z,73949.72
2024-02-23T08:54:05.867Z,73953.78
2024-02-23T09:04:10.388Z,73941.63
2024-02-23T09:14:18.044Z,73917.34
2024-02-23T09:24:22.621Z,73909.28
2024-02-23T09:34:27.097Z,73893.09
2024-02-23T09:44:35.442Z,73866.78
2024-02-23T09:54:41.452Z,73864.75
2024-02-23T10:04:45.881Z,73880.94
2024-02-23T10:14:54.580Z,73864.75
2024-02-23T10:24:59.549Z,73848.59
2024-02-23T10:35:06.997Z,73850.59
2024-02-23T10:45:12.600Z,73856.69
2024-02-23T10:55:22.848Z,73854.66
2024-02-23T11:05:27.960Z,73848.59
2024-02-23T11:15:35.828Z,73864.75
2024-02-23T11:25:41.029Z,73885.00
2024-02-23T11:35:53.389Z,73882.97
2024-02-23T11:45:59.953Z,73913.31
2024-02-23T11:56:02.259Z,73905.22
2024-02-23T12:06:11.575Z,73917.34
2024-02-23T12:16:13.933Z,73895.09
2024-02-23T12:26:24.652Z,73901.19
2024-02-23T12:36:30.241Z,73903.19
2024-02-23T12:46:34.929Z,73887.03
2024-02-23T12:56:45.429Z,73880.94
2024-02-23T13:06:48.823Z,73893.09
2024-02-23T13:16:51.386Z,73895.09
2024-02-23T13:26:54.722Z,73905.22
2024-02-23T13:37:02.061Z,73905.22
2024-02-23T13:47:11.658Z,73945.69
2024-02-23T13:57:18.383Z,73955.78
2024-02-23T14:07:22.709Z,73957.81
2024-02-23T14:17:28.254Z,73967.94
2024-02-23T14:27:34.766Z,73982.09
2024-02-23T14:37:40.750Z,74002.31
2024-02-23T14:47:46.799Z,74010.41
2024-02-23T14:57:51.843Z,74030.66
2024-02-23T15:07:56.827Z,74046.81
2024-02-23T15:18:02.505Z,74046.81
2024-02-23T15:28:08.615Z,74058.97
2024-02-23T15:38:13.138Z,74079.19
2024-02-23T15:48:17.923Z,74107.53
2024-02-23T15:58:22.831Z,74145.97
2024-02-23T16:08:41.998Z,74164.16
2024-02-23T16:18:50.420Z,74166.19
2024-02-23T16:28:52.970Z,74180.34
2024-02-23T16:38:57.793Z,74190.47
2024-02-23T16:49:02.305Z,74196.53
2024-02-23T16:59:06.178Z,74200.56
2024-02-23T17:09:11.580Z,74188.44
2024-02-23T17:19:15.096Z,74178.31
2024-02-23T17:29:22.329Z,74186.41
2024-02-23T17:39:29.439Z,74204.63
2024-02-23T17:49:43.234Z,74220.81
2024-02-23T17:59:48.674Z,74249.13
2024-02-23T18:09:54.321Z,74269.34
2024-02-23T18:19:56.733Z,74263.28
2024-02-23T18:30:01.531Z,74253.19
2024-02-23T18:40:12.095Z,74243.06
2024-02-23T18:50:16.837Z,74253.19
2024-02-23T19:00:22.825Z,74267.34
2024-02-23T19:10:26.001Z,74273.41
2024-02-23T19:20:28.467Z,74273.41
2024-02-23T19:30:37.471Z,74275.44
2024-02-23T19:40:42.157Z,74293.63
2024-02-23T19:50:46.669Z,74301.72
2024-02-23T20:00:55.604Z,74317.91
2024-02-23T20:11:01.146Z,74332.06
2024-02-23T20:21:06.155Z,74328.03
2024-02-23T20:31:08.856Z,74338.16
2024-02-23T20:41:11.291Z,74358.38
2024-02-23T20:51:16.683Z,74348.25
2024-02-23T21:01:19.151Z,74356.34
2024-02-23T21:11:23.826Z,74350.28
2024-02-23T21:21:31.876Z,74358.38
2024-02-23T21:31:36.988Z,74356.34
2024-02-23T21:41:44.075Z,74350.28
2024-02-23T21:51:50.149Z,74362.41
2024-02-23T22:01:57.955Z,74378.59
2024-02-23T22:12:00.588Z,74374.56
2024-02-23T22:22:02.978Z,74378.59
2024-02-23T22:32:05.565Z,74372.53
2024-02-23T22:42:13.007Z,74382.66
2024-02-23T22:52:18.069Z,74380.63
2024-02-23T23:02:20.732Z,74404.91
2024-02-23T23:12:34.078Z,74419.06
2024-02-23T23:22:37.240Z,74419.06
2024-02-23T23:32:41.729Z,74390.75
2024-02-23T23:42:45.042Z,74413.00
2024-02-23T23:52:51.569Z,74410.97
